createdAt,value
2019-05-01T00:03:32.447Z,16.07
2019-05-01T00:08:36.417Z,17.03
2019-05-01T00:13:40.265Z,18.17
2019-05-01T00:18:43.953Z,17.70
2019-05-01T00:23:47.728Z,16.70
2019-05-01T00:28:51.422Z,17.17
2019-05-01T00:33:55.104Z,16.27
2019-05-01T00:38:58.789Z,16.97
2019-05-01T00:44:02.487Z,16.73
2019-05-01T00:49:06.151Z,18.37
2019-05-01T00:54:09.919Z,18.27
2019-05-01T00:59:32.727Z,18.07
2019-05-01T01:04:36.920Z,17.57
2019-05-01T01:09:40.599Z,17.53
2019-05-01T01:14:44.548Z,16.40
2019-05-01T01:19:48.235Z,16.23
2019-05-01T01:24:52.294Z,17.17
2019-05-01T01:29:56.069Z,16.20
2019-05-01T01:34:59.791Z,15.53
2019-05-01T01:40:03.923Z,16.63
2019-05-01T01:45:15.481Z,13.53
2019-05-01T01:50:19.248Z,14.60
2019-05-01T01:55:23.031Z,15.40
2019-05-01T02:00:32.497Z,14.40
2019-05-01T02:05:39.904Z,15.37
2019-05-01T02:10:43.816Z,14.23
2019-05-01T02:15:47.564Z,13.13
2019-05-01T02:20:51.343Z,12.87
2019-05-01T02:25:55.211Z,12.23
2019-05-01T02:31:26.951Z,11.30
2019-05-01T02:36:25.226Z,10.57
2019-05-01T02:41:35.897Z,11.13
2019-05-01T02:46:42.534Z,11.40
2019-05-01T02:51:46.547Z,11.13
2019-05-01T02:57:02.858Z,12.03
2019-05-01T03:02:06.998Z,12.10
2019-05-01T03:07:11.645Z,10.90
2019-05-01T03:12:17.979Z,11.30
2019-05-01T03:17:40.235Z,11.30
2019-05-01T03:23:06.218Z,10.83
2019-05-01T03:28:10.390Z,10.17
2019-05-01T03:33:14.277Z,11.07
2019-05-01T03:38:18.513Z,11.37
2019-05-01T03:43:22.678Z,10.57
2019-05-01T03:48:26.601Z,9.63
2019-05-01T03:53:30.464Z,11.03
2019-05-01T03:58:34.490Z,11.00
2019-05-01T04:03:42.797Z,11.57
2019-05-01T04:08:46.710Z,11.63
2019-05-01T04:13:50.535Z,11.40
2019-05-01T04:18:54.556Z,11.97
2019-05-01T04:23:58.334Z,11.47
2019-05-01T04:29:09.193Z,12.40
2019-05-01T04:34:19.788Z,12.07
2019-05-01T04:39:23.603Z,12.23
2019-05-01T04:44:28.668Z,12.83
2019-05-01T04:49:33.921Z,12.93
2019-05-01T04:54:38.309Z,14.10
2019-05-01T04:59:42.660Z,13.93
2019-05-01T05:04:46.830Z,14.93
2019-05-01T05:09:50.886Z,15.30
2019-05-01T05:14:59.296Z,15.73
2019-05-01T05:20:03.678Z,15.17
2019-05-01T05:25:07.686Z,14.10
2019-05-01T05:30:11.866Z,14.67
2019-05-01T05:35:17.299Z,14.13
2019-05-01T05:40:21.114Z,14.53
2019-05-01T05:45:25.985Z,15.80
2019-05-01T05:50:34.134Z,15.47
2019-05-01T05:55:48.998Z,17.83
2019-05-01T06:01:10.480Z,17.57
2019-05-01T06:06:31.404Z,19.80
2019-05-01T06:12:00.006Z,20.40
2019-05-01T06:17:17.490Z,22.30
2019-05-01T06:22:45.131Z,26.00
2019-05-01T06:27:50.439Z,26.17
2019-05-01T06:32:54.682Z,25.13
2019-05-01T06:38:02.648Z,26.60
2019-05-01T06:43:07.988Z,26.40
2019-05-01T06:48:14.295Z,29.23
2019-05-01T06:53:20.533Z,28.23
2019-05-01T06:58:24.437Z,26.83
2019-05-01T07:03:28.533Z,30.73
2019-05-01T07:08:34.249Z,32.43
2019-05-01T07:13:51.177Z,32.90
2019-05-01T07:18:57.960Z,27.87
2019-05-01T07:24:02.669Z,27.73
2019-05-01T07:29:11.075Z,25.30
2019-05-01T07:34:16.742Z,23.77
2019-05-01T07:39:22.852Z,23.63
2019-05-01T07:44:37.058Z,23.30
2019-05-01T07:49:57.287Z,22.97
2019-05-01T07:55:01.735Z,21.87
2019-05-01T08:00:10.962Z,21.27
2019-05-01T08:05:14.664Z,21.40
2019-05-01T08:10:21.032Z,22.57
2019-05-01T08:15:27.645Z,21.73
2019-05-01T08:20:35.454Z,21.70
2019-05-01T08:25:39.229Z,20.83
2019-05-01T08:31:08.510Z,22.87
2019-05-01T08:36:13.502Z,22.00
2019-05-01T08:41:17.333Z,21.10
2019-05-01T08:46:46.736Z,21.90
2019-05-01T08:51:48.931Z,21.23
2019-05-01T08:56:52.942Z,19.43
2019-05-01T09:02:09.156Z,19.03
2019-05-01T09:07:03.554Z,17.63
2019-05-01T09:12:11.904Z,16.90
2019-05-01T09:17:13.200Z,16.97
2019-05-01T09:22:16.890Z,17.53
2019-05-01T09:27:38.531Z,17.50
2019-05-01T09:32:45.930Z,17.43
2019-05-01T09:37:48.089Z,16.07
2019-05-01T09:42:54.738Z,14.73
2019-05-01T09:47:57.603Z,16.27
2019-05-01T09:53:18.840Z,17.13
2019-05-01T09:58:22.611Z,17.70
2019-05-01T10:03:26.614Z,17.97
2019-05-01T10:08:30.304Z,18.40
2019-05-01T10:13:34.278Z,17.60
2019-05-01T10:18:37.964Z,16.00
2019-05-01T10:23:41.733Z,15.33
2019-05-01T10:28:52.004Z,15.13
2019-05-01T10:34:02.892Z,16.00
2019-05-01T10:39:08.162Z,16.13
2019-05-01T10:44:11.950Z,16.50
2019-05-01T10:49:15.632Z,16.20
2019-05-01T10:54:19.305Z,16.13
2019-05-01T10:59:23.016Z,15.50
2019-05-01T11:04:26.741Z,15.28
2019-05-01T11:09:30.503Z,15.50
2019-05-01T11:14:34.194Z,14.60
2019-05-01T11:19:38.123Z,15.58
2019-05-01T11:24:41.876Z,14.93
2019-05-01T11:29:45.782Z,14.60
2019-05-01T11:34:56.381Z,14.60
2019-05-01T11:40:10.166Z,13.38
2019-05-01T11:45:14.102Z,16.02
2019-05-01T11:50:18.042Z,14.47
2019-05-01T11:55:21.799Z,15.68
2019-05-01T12:00:25.593Z,15.32
2019-05-01T12:05:29.286Z,14.65
2019-05-01T12:10:33.025Z,14.50
2019-05-01T12:15:36.738Z,13.50
2019-05-01T12:20:40.411Z,12.40
2019-05-01T12:25:44.102Z,11.00
2019-05-01T12:30:47.985Z,9.55
2019-05-01T12:35:53.596Z,9.73
2019-05-01T12:41:15.050Z,9.05
2019-05-01T12:46:36.273Z,9.20
2019-05-01T12:51:41.218Z,9.30
2019-05-01T12:56:52.182Z,10.85
2019-05-01T13:01:56.418Z,12.80
2019-05-01T13:07:00.550Z,13.65
2019-05-01T13:12:04.400Z,14.13
2019-05-01T13:17:08.326Z,13.78
2019-05-01T13:22:12.022Z,13.62
2019-05-01T13:27:21.161Z,13.53
2019-05-01T13:32:35.429Z,14.25
2019-05-01T13:37:39.680Z,14.50
2019-05-01T13:42:43.577Z,15.03
2019-05-01T13:47:47.293Z,12.93
2019-05-01T13:52:51.054Z,9.80
2019-05-01T13:57:54.775Z,9.15
2019-05-01T14:02:58.502Z,9.50
2019-05-01T14:08:02.170Z,9.60
2019-05-01T14:13:05.825Z,9.53
2019-05-01T14:18:09.517Z,10.32
2019-05-01T14:23:31.030Z,11.43
2019-05-01T14:28:35.396Z,10.63
2019-05-01T14:33:39.578Z,9.70
2019-05-01T14:38:43.481Z,8.55
2019-05-01T14:43:47.168Z,7.17
2019-05-01T14:48:50.860Z,7.35
2019-05-01T14:53:57.035Z,6.90
2019-05-01T14:59:00.962Z,7.85
2019-05-01T15:04:04.791Z,7.80
2019-05-01T15:09:09.269Z,7.90
2019-05-01T15:14:34.373Z,7.75
2019-05-01T15:19:43.227Z,7.83
2019-05-01T15:24:46.894Z,7.47
2019-05-01T15:29:50.582Z,8.78
2019-05-01T15:34:54.306Z,7.70
2019-05-01T15:40:02.652Z,7.75
2019-05-01T15:45:07.257Z,8.13
2019-05-01T15:50:11.443Z,8.23
2019-05-01T15:55:15.440Z,8.23
2019-05-01T16:00:20.871Z,8.78
2019-05-01T16:05:24.797Z,8.58
2019-05-01T16:10:33.161Z,7.72
2019-05-01T16:15:36.921Z,6.65
2019-05-01T16:20:40.656Z,7.65
2019-05-01T16:25:44.352Z,7.85
2019-05-01T16:30:48.074Z,7.75
2019-05-01T16:36:36.525Z,8.28
2019-05-01T16:41:40.613Z,7.62
2019-05-01T16:46:44.295Z,7.78
2019-05-01T16:51:48.120Z,7.92
2019-05-01T16:56:51.884Z,7.72
2019-05-01T17:02:08.965Z,8.18
2019-05-01T17:07:40.929Z,7.78
2019-05-01T17:12:49.016Z,8.38
2019-05-01T17:17:52.745Z,8.33
2019-05-01T17:22:56.434Z,8.90
2019-05-01T17:28:02.749Z,8.57
2019-05-01T17:33:06.745Z,8.93
2019-05-01T17:38:10.632Z,9.10
2019-05-01T17:43:15.449Z,8.07
2019-05-01T17:48:19.386Z,9.20
2019-05-01T17:53:23.089Z,8.67
2019-05-01T17:58:27.288Z,8.30
2019-05-01T18:03:56.136Z,8.50
2019-05-01T18:09:03.304Z,8.43
2019-05-01T18:14:06.084Z,8.23
2019-05-01T18:19:11.221Z,8.27
2019-05-01T18:24:45.399Z,8.13
2019-05-01T18:29:51.484Z,8.87
2019-05-01T18:34:55.490Z,8.20
2019-05-01T18:39:59.769Z,9.10
2019-05-01T18:45:04.621Z,8.43
2019-05-01T18:50:08.382Z,8.50
2019-05-01T18:55:12.211Z,8.37
2019-05-01T19:00:15.885Z,8.43
2019-05-01T19:05:19.573Z,8.30
2019-05-01T19:10:23.590Z,8.17
2019-05-01T19:15:27.352Z,8.87
2019-05-01T19:20:31.073Z,8.53
2019-05-01T19:25:34.749Z,8.17
2019-05-01T19:30:39.669Z,8.50
2019-05-01T19:35:43.470Z,8.37
2019-05-01T19:40:47.251Z,9.43
2019-05-01T19:45:51.027Z,9.03
2019-05-01T19:50:54.721Z,8.63
2019-05-01T19:55:58.485Z,8.70
2019-05-01T20:01:04.775Z,8.67
2019-05-01T20:06:08.675Z,8.40
2019-05-01T20:11:12.370Z,9.03
2019-05-01T20:16:16.435Z,8.10
2019-05-01T20:21:20.236Z,8.93
2019-05-01T20:26:26.977Z,9.60
2019-05-01T20:31:32.651Z,8.57
2019-05-01T20:36:34.963Z,10.87
2019-05-01T20:41:39.353Z,10.73
2019-05-01T20:46:43.062Z,11.90
2019-05-01T20:51:46.781Z,14.20
2019-05-01T20:57:13.513Z,12.87
2019-05-01T21:02:17.975Z,12.17
2019-05-01T21:07:25.091Z,12.00
2019-05-01T21:12:28.788Z,11.73
2019-05-01T21:17:32.713Z,12.70
2019-05-01T21:22:36.373Z,12.73
2019-05-01T21:27:40.082Z,11.03
2019-05-01T21:32:44.302Z,11.57
2019-05-01T21:37:48.232Z,11.40
2019-05-01T21:42:55.722Z,11.70
2019-05-01T21:47:57.602Z,10.97
2019-05-01T21:53:05.377Z,12.53
2019-05-01T21:58:07.066Z,11.80
2019-05-01T22:03:10.918Z,11.87
2019-05-01T22:08:14.761Z,12.27
2019-05-01T22:13:20.294Z,12.23
2019-05-01T22:18:32.211Z,12.13
2019-05-01T22:23:55.165Z,11.63
2019-05-01T22:29:00.540Z,11.10
2019-05-01T22:34:13.986Z,10.70
2019-05-01T22:39:19.538Z,11.67
2019-05-01T22:44:26.020Z,10.93
2019-05-01T22:49:29.717Z,11.57
2019-05-01T22:54:33.428Z,11.00
2019-05-01T22:59:37.366Z,10.70
2019-05-01T23:04:41.125Z,11.57
2019-05-01T23:09:45.052Z,11.63
2019-05-01T23:14:49.050Z,11.40
2019-05-01T23:19:52.811Z,12.07
2019-05-01T23:24:56.500Z,11.27
2019-05-01T23:30:00.209Z,12.07
2019-05-01T23:35:04.189Z,11.37
2019-05-01T23:40:10.876Z,11.63
2019-05-01T23:45:13.771Z,11.57
2019-05-01T23:50:17.833Z,11.27
2019-05-01T23:55:21.534Z,11.40
